Time;durP1;ratioP1;P1;durP2;ratioP2;P2;SDS_P1;SDS_P2;PMS_P1;PMS_P2;Temp;Humidity;BMP_temperature;BMP_pressure;BME280_temperature;BME280_humidity;BME280_pressure;Samples;Min_cycle;Max_cycle;Signal;HPM_P1;HPM_P2
2022/03/30 00:01:16;;;;;;;4.95;1.30;;;24.80;77.40;;;;;;4224727;27;20236;-52
2022/03/30 00:03:38;;;;;;;2.42;1.10;;;24.80;78.00;;;;;;4233388;27;20122;-53
2022/03/30 00:06:01;;;;;;;2.03;1.02;;;24.80;77.30;;;;;;4224496;27;20046;-51
2022/03/30 00:08:24;;;;;;;4.25;1.20;;;24.80;77.40;;;;;;4222040;27;20045;-50
2022/03/30 00:10:46;;;;;;;2.42;1.05;;;24.80;77.50;;;;;;4233108;27;20473;-49
2022/03/30 00:13:09;;;;;;;2.03;0.85;;;24.80;77.40;;;;;;4224179;27;20049;-49
2022/03/30 00:15:32;;;;;;;1.48;0.80;;;24.80;77.50;;;;;;4224887;27;20038;-52
2022/03/30 00:17:54;;;;;;;3.92;1.35;;;24.80;77.40;;;;;;4232645;27;20931;-51
2022/03/30 00:20:19;;;;;;;4.47;1.25;;;24.90;77.40;;;;;;4206643;27;20031;-48
2022/03/30 00:22:41;;;;;;;3.45;1.27;;;24.90;77.20;;;;;;4223532;27;20084;-54
2022/03/30 00:25:06;;;;;;;3.08;1.23;;;24.90;77.20;;;;;;4232818;27;20153;-50
2022/03/30 00:27:28;;;;;;;2.58;1.33;;;24.90;77.40;;;;;;4224141;27;20049;-48
2022/03/30 00:29:51;;;;;;;2.13;1.02;;;24.90;77.30;;;;;;4224729;27;20061;-51
2022/03/30 00:32:13;;;;;;;3.78;1.20;;;25.00;77.50;;;;;;4234092;27;20042;-53
2022/03/30 00:34:36;;;;;;;3.65;1.25;;;24.90;77.40;;;;;;4226452;27;20086;-58
2022/03/30 00:36:58;;;;;;;4.20;1.60;;;25.00;77.40;;;;;;4225504;27;20168;-54
2022/03/30 00:39:21;;;;;;;2.20;1.02;;;25.00;77.30;;;;;;4236370;27;20034;-51
2022/03/30 00:41:44;;;;;;;2.42;1.20;;;25.00;77.40;;;;;;4223583;27;20057;-56
2022/03/30 00:44:12;;;;;;;2.97;1.50;;;25.00;77.40;;;;;;4222244;27;20056;-54
2022/03/30 00:46:34;;;;;;;4.40;1.60;;;25.00;77.40;;;;;;4231764;27;20920;-53
2022/03/30 00:48:57;;;;;;;2.75;1.30;;;25.00;77.20;;;;;;4220741;27;20046;-49
2022/03/30 00:51:20;;;;;;;1.67;1.10;;;25.00;77.20;;;;;;4223112;27;20045;-56
2022/03/30 00:53:42;;;;;;;3.15;1.30;;;25.00;77.20;;;;;;4232126;27;20046;-49
2022/03/30 00:56:07;;;;;;;4.72;1.63;;;25.10;77.20;;;;;;4223254;27;20475;-50
2022/03/30 00:58:29;;;;;;;2.92;1.05;;;25.10;77.20;;;;;;4222699;27;20679;-54
2022/03/30 01:00:52;;;;;;;3.83;1.42;;;25.10;77.30;;;;;;4227672;27;20049;-53
2022/03/30 01:03:16;;;;;;;4.83;1.73;;;25.10;77.20;;;;;;4213350;27;20038;-54
2022/03/30 01:05:39;;;;;;;6.07;1.98;;;25.10;76.70;;;;;;4225765;27;21119;-52
2022/03/30 01:08:02;;;;;;;4.03;2.10;;;25.10;76.50;;;;;;4233393;27;20054;-51
2022/03/30 01:10:25;;;;;;;6.33;1.97;;;25.00;76.60;;;;;;4221835;27;20774;-52
2022/03/30 01:12:52;;;;;;;4.05;1.88;;;25.00;76.70;;;;;;4209653;27;20037;-57
2022/03/30 01:15:15;;;;;;;5.95;1.70;;;25.00;77.00;;;;;;4227496;27;20042;-55
2022/03/30 01:17:37;;;;;;;5.63;1.63;;;25.00;77.20;;;;;;4220577;27;20072;-51
2022/03/30 01:20:00;;;;;;;5.20;1.80;;;25.00;77.30;;;;;;4225451;27;20137;-56
2022/03/30 01:22:23;;;;;;;4.85;1.60;;;25.00;77.50;;;;;;4227515;27;20030;-56
2022/03/30 01:24:45;;;;;;;4.45;1.50;;;25.00;77.50;;;;;;4224651;27;20083;-52
2022/03/30 01:27:08;;;;;;;4.22;1.73;;;25.00;77.50;;;;;;4222516;27;20053;-55
2022/03/30 01:32:29;;;;;;;3.95;1.52;;;25.00;77.60;;;;;;4228517;27;20676;-56
2022/03/30 01:34:51;;;;;;;2.58;1.42;;;25.00;77.60;;;;;;4228721;27;20034;-57
2022/03/30 01:37:14;;;;;;;4.15;1.67;;;25.00;77.60;;;;;;4226714;27;20034;-54
2022/03/30 01:39:38;;;;;;;5.67;1.53;;;25.00;77.60;;;;;;4221177;27;20192;-52
2022/03/30 01:42:00;;;;;;;3.05;1.38;;;25.00;77.60;;;;;;4227095;27;20084;-56
2022/03/30 01:44:24;;;;;;;2.85;1.40;;;25.10;78.30;;;;;;4224126;27;20072;-52
2022/03/30 01:46:46;;;;;;;1.92;1.10;;;25.00;77.70;;;;;;4219631;27;20054;-53
2022/03/30 01:49:09;;;;;;;3.45;1.27;;;25.10;77.70;;;;;;4223200;27;21257;-52
2022/03/30 01:51:31;;;;;;;2.20;1.40;;;25.10;77.70;;;;;;4226482;27;20730;-55
2022/03/30 01:53:54;;;;;;;2.97;1.10;;;25.10;77.10;;;;;;4222522;27;20125;-54
2022/03/30 01:56:16;;;;;;;2.95;1.52;;;25.10;77.40;;;;;;4223006;27;20042;-50
2022/03/30 01:58:38;;;;;;;3.97;1.50;;;25.10;77.70;;;;;;4226266;27;20083;-53
2022/03/30 02:01:03;;;;;;;4.43;1.35;;;25.10;77.60;;;;;;4223736;27;20721;-49
2022/03/30 02:03:27;;;;;;;2.90;1.50;;;25.10;77.60;;;;;;4225086;27;21433;-52
2022/03/30 02:05:50;;;;;;;1.83;1.30;;;25.10;77.50;;;;;;4227328;27;20053;-53
2022/03/30 02:08:13;;;;;;;2.45;1.52;;;25.10;77.50;;;;;;4219559;27;20034;-53
2022/03/30 02:10:35;;;;;;;3.35;1.50;;;25.10;77.40;;;;;;4221674;27;21024;-52
2022/03/30 02:12:58;;;;;;;3.53;1.50;;;25.10;77.10;;;;;;4227325;27;20050;-52
2022/03/30 02:15:22;;;;;;;3.05;1.70;;;25.10;77.20;;;;;;4209357;27;20038;-52
2022/03/30 02:17:45;;;;;;;2.72;1.45;;;25.10;77.20;;;;;;4221797;27;22425;-48
2022/03/30 02:20:09;;;;;;;3.10;1.50;;;25.20;77.00;;;;;;4229587;27;20053;-49
2022/03/30 02:22:31;;;;;;;2.30;1.35;;;25.20;77.10;;;;;;4219419;27;20099;-51
2022/03/30 02:24:54;;;;;;;1.58;1.10;;;25.20;77.20;;;;;;4226430;27;20034;-49
2022/03/30 02:27:19;;;;;;;2.92;1.10;;;25.30;77.30;;;;;;4230627;27;20510;-55
2022/03/30 02:29:41;;;;;;;1.02;0.70;;;25.30;77.40;;;;;;4220768;27;20110;-54
2022/03/30 02:32:04;;;;;;;4.25;1.00;;;25.30;77.40;;;;;;4227132;27;20366;-47
2022/03/30 02:34:28;;;;;;;3.03;1.05;;;25.30;77.40;;;;;;4228165;27;20034;-49
2022/03/30 02:36:50;;;;;;;1.53;0.90;;;25.40;77.60;;;;;;4228668;27;20640;-50
2022/03/30 02:39:14;;;;;;;2.45;1.00;;;25.40;77.70;;;;;;4227921;27;20233;-47
2022/03/30 02:41:36;;;;;;;5.07;0.73;;;25.40;77.80;;;;;;4230726;27;20042;-46
2022/03/30 02:43:59;;;;;;;3.13;0.85;;;25.50;77.80;;;;;;4223420;27;20781;-46
2022/03/30 02:46:21;;;;;;;1.60;0.60;;;25.50;77.60;;;;;;4229100;27;20054;-46
2022/03/30 02:48:44;;;;;;;1.60;0.60;;;25.50;77.40;;;;;;4227432;27;20035;-47
2022/03/30 02:51:09;;;;;;;1.80;0.63;;;25.60;77.50;;;;;;4223080;27;20071;-52
2022/03/30 02:53:32;;;;;;;1.17;0.77;;;25.60;77.40;;;;;;4218498;27;20093;-51
2022/03/30 02:55:54;;;;;;;1.15;0.80;;;25.60;77.40;;;;;;4231643;27;20572;-55
2022/03/30 02:58:19;;;;;;;2.78;0.93;;;25.60;77.40;;;;;;4227778;27;20125;-49
2022/03/30 03:00:42;;;;;;;0.80;0.70;;;25.60;77.40;;;;;;4236742;27;20528;-52
2022/03/30 03:03:07;;;;;;;2.15;0.82;;;25.70;77.30;;;;;;4225841;27;20057;-51
2022/03/30 03:05:33;;;;;;;2.90;1.20;;;25.70;77.40;;;;;;4227983;27;20049;-53
2022/03/30 03:07:55;;;;;;;2.55;0.70;;;25.70;77.30;;;;;;4232318;27;20637;-48
2022/03/30 03:10:18;;;;;;;1.77;0.68;;;25.70;77.30;;;;;;4224206;27;20022;-54
2022/03/30 03:12:40;;;;;;;1.55;0.70;;;25.70;77.20;;;;;;4223191;27;21089;-50
2022/03/30 03:15:03;;;;;;;3.17;0.68;;;25.70;77.10;;;;;;4235215;27;20038;-46
2022/03/30 03:17:25;;;;;;;1.23;0.80;;;25.70;77.10;;;;;;4229282;27;20684;-52
2022/03/30 03:19:48;;;;;;;0.75;0.38;;;25.70;77.10;;;;;;4231516;27;20065;-46
2022/03/30 03:22:10;;;;;;;0.98;0.60;;;25.80;77.10;;;;;;4233117;27;20045;-52
2022/03/30 03:24:33;;;;;;;1.85;0.70;;;25.80;77.10;;;;;;4228032;27;20061;-47
2022/03/30 03:26:55;;;;;;;3.25;0.90;;;25.80;77.10;;;;;;4221588;27;20041;-51
2022/03/30 03:29:18;;;;;;;1.17;0.70;;;25.80;77.10;;;;;;4233862;27;20533;-50
2022/03/30 03:31:42;;;;;;;0.40;0.40;;;25.90;77.00;;;;;;4229068;27;20107;-54
2022/03/30 03:34:04;;;;;;;;;;;25.90;77.00;;;;;;4225890;27;20046;-50
2022/03/30 03:36:26;;;;;;;1.23;0.70;;;25.90;76.90;;;;;;4229050;27;20033;-48
2022/03/30 03:38:49;;;;;;;0.93;0.50;;;25.90;76.80;;;;;;4230216;27;20038;-53
2022/03/30 03:41:12;;;;;;;0.82;0.60;;;26.00;76.80;;;;;;4227359;27;20046;-50
2022/03/30 03:43:35;;;;;;;1.00;0.70;;;26.00;76.70;;;;;;4231262;27;20034;-48
2022/03/30 03:45:58;;;;;;;0.65;0.65;;;26.00;76.50;;;;;;4219305;27;20578;-53
2022/03/30 03:48:21;;;;;;;1.77;0.82;;;26.00;76.50;;;;;;4230974;27;20026;-50
2022/03/30 03:50:43;;;;;;;1.20;0.80;;;26.10;76.50;;;;;;4229893;27;21339;-47
2022/03/30 03:53:06;;;;;;;1.92;0.80;;;26.10;76.40;;;;;;4234817;27;20038;-49
2022/03/30 03:55:31;;;;;;;0.40;0.40;;;26.10;76.30;;;;;;4227866;27;20030;-47
2022/03/30 03:57:53;;;;;;;1.52;0.68;;;26.10;76.20;;;;;;4235560;27;20053;-51
2022/03/30 04:00:17;;;;;;;0.80;0.70;;;26.10;76.20;;;;;;4229505;27;20438;-48
2022/03/30 04:02:40;;;;;;;1.15;0.68;;;26.10;76.10;;;;;;4230768;27;20034;-53
2022/03/30 04:05:04;;;;;;;0.93;0.60;;;26.20;76.10;;;;;;4230780;27;20698;-48
2022/03/30 04:07:26;;;;;;;1.38;0.70;;;26.20;76.10;;;;;;4225174;27;20470;-47
2022/03/30 04:09:49;;;;;;;0.80;0.65;;;26.20;76.00;;;;;;4224893;27;20045;-48
2022/03/30 04:12:12;;;;;;;0.65;0.65;;;26.30;75.90;;;;;;4233030;27;20153;-52
2022/03/30 04:14:34;;;;;;;1.17;0.52;;;26.30;75.80;;;;;;4228003;27;20073;-48
2022/03/30 04:16:57;;;;;;;0.87;0.80;;;26.30;76.00;;;;;;4209172;27;20035;-48
2022/03/30 04:19:19;;;;;;;0.93;0.70;;;26.30;75.80;;;;;;4225730;27;21854;-50
2022/03/30 04:21:43;;;;;;;0.95;0.55;;;26.40;75.70;;;;;;4227112;27;20045;-54
2022/03/30 04:24:06;;;;;;;0.95;0.50;;;26.40;75.70;;;;;;4224087;27;20034;-53
2022/03/30 04:26:29;;;;;;;0.82;0.63;;;26.40;75.70;;;;;;4226949;27;22332;-50
2022/03/30 04:28:51;;;;;;;1.13;0.77;;;26.40;75.60;;;;;;4224830;27;20316;-52
2022/03/30 04:31:14;;;;;;;2.00;0.67;;;26.40;75.50;;;;;;4222395;27;20065;-52
2022/03/30 04:33:37;;;;;;;1.42;1.05;;;26.50;75.40;;;;;;4229915;27;21157;-45
2022/03/30 04:36:00;;;;;;;1.00;0.90;;;26.50;75.40;;;;;;4228727;27;20038;-52
2022/03/30 04:38:23;;;;;;;1.13;0.93;;;26.50;75.50;;;;;;4222823;27;20511;-53
2022/03/30 04:40:45;;;;;;;0.80;0.73;;;26.50;75.40;;;;;;4225900;27;20832;-50
2022/03/30 04:43:08;;;;;;;0.80;0.75;;;26.50;75.50;;;;;;4229222;27;20034;-51
2022/03/30 04:45:31;;;;;;;1.80;1.10;;;26.60;75.30;;;;;;4221540;27;20106;-52
2022/03/30 04:47:53;;;;;;;1.15;0.65;;;26.60;75.20;;;;;;4227607;27;20042;-48
2022/03/30 04:50:16;;;;;;;2.83;0.90;;;26.70;75.00;;;;;;4231288;27;20042;-50
2022/03/30 04:52:40;;;;;;;2.15;0.80;;;26.80;75.00;;;;;;4220784;27;20058;-51
2022/03/30 04:55:04;;;;;;;1.15;1.05;;;26.80;74.90;;;;;;4225212;27;20042;-53
2022/03/30 04:57:27;;;;;;;1.02;0.75;;;26.80;74.90;;;;;;4225498;27;20033;-52
2022/03/30 04:59:49;;;;;;;1.27;0.30;;;26.80;75.20;;;;;;4222586;27;20038;-48
2022/03/30 05:02:12;;;;;;;1.17;0.90;;;26.80;74.90;;;;;;4214591;27;22058;-50
2022/03/30 05:04:35;;;;;;;0.93;0.70;;;26.80;74.80;;;;;;4227090;27;20042;-52
2022/03/30 05:06:57;;;;;;;2.40;1.10;;;26.90;74.90;;;;;;4218935;27;20042;-51
2022/03/30 05:09:20;;;;;;;1.55;0.95;;;26.90;74.80;;;;;;4222422;27;22374;-53
2022/03/30 05:11:43;;;;;;;0.95;0.60;;;26.90;74.70;;;;;;4229130;27;20042;-52
2022/03/30 05:14:06;;;;;;;1.85;0.65;;;27.00;74.70;;;;;;4218703;27;20034;-46
2022/03/30 05:16:29;;;;;;;1.25;0.63;;;27.00;74.60;;;;;;4225923;27;20138;-51
2022/03/30 05:18:52;;;;;;;0.75;0.70;;;27.00;74.60;;;;;;4229454;27;21025;-55
2022/03/30 05:21:14;;;;;;;0.93;0.77;;;27.00;74.60;;;;;;4221242;27;20145;-51
2022/03/30 05:23:37;;;;;;;1.63;0.70;;;27.00;74.40;;;;;;4220006;27;21156;-50
2022/03/30 05:26:00;;;;;;;1.70;0.73;;;27.00;74.50;;;;;;4228467;27;20628;-52
2022/03/30 05:28:22;;;;;;;1.75;0.93;;;27.00;74.40;;;;;;4223347;27;20034;-47
2022/03/30 05:30:45;;;;;;;1.45;0.70;;;27.00;74.40;;;;;;4219516;27;20035;-48
2022/03/30 05:33:07;;;;;;;2.10;0.70;;;27.00;74.50;;;;;;4230872;27;20036;-47
2022/03/30 05:35:30;;;;;;;0.73;0.40;;;27.00;74.40;;;;;;4222086;27;20121;-51
2022/03/30 05:37:52;;;;;;;0.85;0.70;;;27.00;74.40;;;;;;4223411;27;20777;-52
2022/03/30 05:40:16;;;;;;;2.47;0.90;;;27.00;74.40;;;;;;4229620;27;20038;-52
2022/03/30 05:42:39;;;;;;;1.77;0.75;;;27.00;74.40;;;;;;4219704;27;20105;-49
2022/03/30 05:45:02;;;;;;;1.90;0.80;;;27.00;74.40;;;;;;4218945;27;20051;-50
2022/03/30 05:47:24;;;;;;;1.07;0.63;;;27.00;74.30;;;;;;4225172;27;20525;-53
2022/03/30 05:49:47;;;;;;;1.63;0.90;;;27.00;74.30;;;;;;4217340;27;20121;-53
2022/03/30 05:52:10;;;;;;;2.03;0.80;;;27.00;74.40;;;;;;4216401;27;20030;-50
2022/03/30 05:54:33;;;;;;;1.17;0.88;;;27.00;74.40;;;;;;4230400;27;20223;-54
2022/03/30 05:57:01;;;;;;;3.78;0.88;;;26.90;74.40;;;;;;4224292;27;20050;-51
2022/03/30 05:59:24;;;;;;;2.53;0.88;;;26.90;74.40;;;;;;4224516;27;20071;-46
2022/03/30 06:01:47;;;;;;;3.90;0.70;;;27.00;74.30;;;;;;4231169;27;20034;-50
2022/03/30 06:04:09;;;;;;;2.05;1.00;;;27.00;74.50;;;;;;4222795;27;20106;-53
2022/03/30 06:06:32;;;;;;;4.50;0.98;;;27.00;74.70;;;;;;4221647;27;20058;-49
2022/03/30 06:08:54;;;;;;;1.58;0.65;;;26.90;74.70;;;;;;4228369;27;20030;-52
2022/03/30 06:11:17;;;;;;;1.35;0.75;;;27.00;74.80;;;;;;4221641;27;20095;-49
2022/03/30 06:13:39;;;;;;;0.90;0.50;;;27.00;74.70;;;;;;4220850;27;20062;-47
2022/03/30 06:16:01;;;;;;;0.77;0.57;;;27.00;74.70;;;;;;4229070;27;20042;-51
2022/03/30 06:18:24;;;;;;;2.58;0.60;;;27.00;74.40;;;;;;4221941;27;20937;-46
2022/03/30 06:20:46;;;;;;;0.82;0.60;;;27.00;74.30;;;;;;4223101;27;20042;-54
2022/03/30 06:23:10;;;;;;;1.13;0.73;;;27.00;74.20;;;;;;4227873;27;20034;-48
2022/03/30 06:25:33;;;;;;;2.03;0.70;;;27.10;74.20;;;;;;4221740;27;20088;-46
2022/03/30 06:27:57;;;;;;;1.60;0.70;;;27.10;74.20;;;;;;4219886;27;20045;-46
2022/03/30 06:30:20;;;;;;;1.33;0.63;;;27.00;74.00;;;;;;4231094;27;20034;-47
2022/03/30 06:32:46;;;;;;;1.90;0.60;;;27.00;74.10;;;;;;4212338;27;20042;-45
2022/03/30 06:35:09;;;;;;;2.90;0.77;;;27.00;74.00;;;;;;4214446;27;20038;-49
2022/03/30 06:37:32;;;;;;;0.80;0.70;;;27.00;74.00;;;;;;4226885;27;20074;-50
2022/03/30 06:39:54;;;;;;;1.77;0.88;;;27.00;74.30;;;;;;4220224;27;20098;-49
2022/03/30 06:42:17;;;;;;;2.20;0.80;;;27.00;74.10;;;;;;4218060;27;20476;-54
2022/03/30 06:44:40;;;;;;;0.85;0.57;;;27.00;74.00;;;;;;4225098;27;20050;-50
2022/03/30 06:47:03;;;;;;;1.85;0.75;;;27.00;74.00;;;;;;4216976;27;20034;-49
2022/03/30 06:49:26;;;;;;;1.88;0.93;;;27.00;74.00;;;;;;4220039;27;20034;-54
2022/03/30 06:51:48;;;;;;;1.85;0.90;;;27.00;73.90;;;;;;4228250;27;20118;-49
2022/03/30 06:54:11;;;;;;;1.33;0.73;;;27.00;73.90;;;;;;4221085;27;20069;-50
2022/03/30 06:56:33;;;;;;;1.05;0.70;;;27.00;73.90;;;;;;4219592;27;20086;-48
2022/03/30 06:58:56;;;;;;;2.73;0.83;;;27.00;73.50;;;;;;4228005;27;20026;-54
2022/03/30 07:01:19;;;;;;;1.90;0.70;;;27.00;73.90;;;;;;4218165;27;20678;-51
2022/03/30 07:03:41;;;;;;;1.35;0.70;;;27.00;73.90;;;;;;4217587;27;20322;-53
2022/03/30 07:06:04;;;;;;;0.88;0.70;;;27.00;73.90;;;;;;4226876;27;20458;-51
2022/03/30 07:11:08;;;;;;;1.02;0.77;;;27.00;73.90;;;;;;4223743;27;20106;-47
2022/03/30 07:13:30;;;;;;;0.87;0.73;;;26.90;73.80;;;;;;4221380;27;20034;-46
2022/03/30 07:15:53;;;;;;;2.15;0.90;;;27.00;73.90;;;;;;4221407;27;20147;-44
2022/03/30 07:18:16;;;;;;;1.95;0.90;;;26.90;73.80;;;;;;4226518;27;20039;-46
2022/03/30 07:20:39;;;;;;;1.15;0.70;;;26.90;73.90;;;;;;4223889;27;20034;-52
2022/03/30 07:37:52;;;;;;;2.15;0.82;;;26.90;74.10;;;;;;4175627;27;20055;-49
2022/03/30 07:40:18;;;;;;;1.40;0.70;;;26.90;73.90;;;;;;4184733;27;20054;-46
2022/03/30 07:42:41;;;;;;;1.15;0.80;;;26.90;74.00;;;;;;4175482;27;20215;-48
2022/03/30 07:45:07;;;;;;;1.00;0.80;;;26.90;74.00;;;;;;4177738;27;20862;-48
2022/03/30 07:47:31;;;;;;;5.25;1.05;;;26.90;74.10;;;;;;4181923;27;20052;-52
2022/03/30 07:49:54;;;;;;;1.08;0.80;;;26.90;74.20;;;;;;4182407;27;20063;-53
2022/03/30 07:52:17;;;;;;;1.73;0.77;;;26.90;74.20;;;;;;4193608;27;20034;-51
2022/03/30 07:54:41;;;;;;;0.93;0.57;;;26.90;74.20;;;;;;4186993;27;20131;-54
2022/03/30 07:57:04;;;;;;;1.52;0.82;;;26.80;74.20;;;;;;4183544;27;20035;-45
2022/03/30 07:59:26;;;;;;;1.35;0.90;;;26.80;74.20;;;;;;4187117;27;21778;-50
2022/03/30 08:01:49;;;;;;;1.10;0.60;;;26.90;74.30;;;;;;4185133;27;20054;-52
2022/03/30 08:04:12;;;;;;;1.42;1.00;;;26.90;74.40;;;;;;4179760;27;20372;-50
2022/03/30 08:06:34;;;;;;;1.52;0.75;;;26.80;74.30;;;;;;4184474;27;20043;-51
2022/03/30 08:08:58;;;;;;;2.03;0.90;;;26.80;74.30;;;;;;4189177;27;20047;-53
2022/03/30 08:11:21;;;;;;;1.42;0.75;;;26.80;74.40;;;;;;4177666;27;20043;-52
2022/03/30 08:13:43;;;;;;;1.05;0.65;;;26.80;74.40;;;;;;4175538;27;20076;-47
2022/03/30 08:16:06;;;;;;;1.98;0.65;;;26.80;74.40;;;;;;4189183;27;20040;-53
2022/03/30 08:18:29;;;;;;;3.63;0.80;;;26.80;74.40;;;;;;4184340;27;20127;-50
2022/03/30 08:23:35;;;;;;;0.88;0.75;;;26.80;74.50;;;;;;4184735;27;20058;-54
2022/03/30 08:25:58;;;;;;;0.82;0.70;;;26.80;74.40;;;;;;4189174;27;20134;-50
2022/03/30 08:28:20;;;;;;;0.60;0.57;;;26.80;74.50;;;;;;4172950;27;20122;-56
2022/03/30 08:30:43;;;;;;;3.05;0.90;;;26.80;74.50;;;;;;4177852;27;20272;-51
2022/03/30 08:33:05;;;;;;;0.60;0.50;;;26.80;74.50;;;;;;4183673;27;20123;-53
2022/03/30 08:35:28;;;;;;;1.55;0.90;;;26.80;74.60;;;;;;4177902;27;20263;-50
2022/03/30 08:37:50;;;;;;;0.65;0.65;;;26.80;74.60;;;;;;4174665;27;21844;-49
2022/03/30 08:40:13;;;;;;;1.20;0.90;;;26.80;74.60;;;;;;4181417;27;20047;-47
2022/03/30 08:42:38;;;;;;;2.25;1.00;;;26.80;74.60;;;;;;4172051;27;20031;-48
2022/03/30 08:45:02;;;;;;;0.55;0.52;;;26.80;74.60;;;;;;4170801;27;20043;-49
2022/03/30 08:47:25;;;;;;;1.10;0.70;;;26.80;74.60;;;;;;4181072;27;20565;-49
2022/03/30 08:49:50;;;;;;;1.38;0.60;;;26.80;74.70;;;;;;4173727;27;20040;-52
2022/03/30 08:52:13;;;;;;;0.38;0.35;;;26.80;74.70;;;;;;4177481;27;20166;-53
2022/03/30 08:54:36;;;;;;;0.77;0.70;;;26.80;74.70;;;;;;4180165;27;20031;-54
2022/03/30 08:56:59;;;;;;;0.95;0.60;;;26.80;74.70;;;;;;4175039;27;20039;-49
2022/03/30 08:59:23;;;;;;;0.80;0.43;;;26.80;74.70;;;;;;4178819;28;20043;-52
2022/03/30 09:01:46;;;;;;;0.80;0.65;;;26.80;74.80;;;;;;4162460;27;20035;-52
2022/03/30 09:04:12;;;;;;;0.75;0.60;;;26.80;74.80;;;;;;4167165;27;20812;-54
2022/03/30 09:06:38;;;;;;;1.60;0.70;;;26.80;74.70;;;;;;4181155;27;20140;-53
2022/03/30 09:09:00;;;;;;;1.08;0.77;;;26.70;74.70;;;;;;4171661;27;20046;-49
2022/03/30 09:11:27;;;;;;;0.50;0.45;;;26.70;74.60;;;;;;4171926;27;20043;-50
2022/03/30 09:14:01;;;;;;;0.75;0.60;;;26.80;74.70;;;;;;4172509;27;20039;-55
2022/03/30 09:16:24;;;;;;;1.02;0.70;;;26.70;74.60;;;;;;4178621;27;20218;-53
2022/03/30 09:19:04;;;;;;;1.45;0.90;;;26.70;74.70;;;;;;4176351;27;20104;-55
2022/03/30 09:21:47;;;;;;;1.50;0.40;;;26.70;74.70;;;;;;4178592;27;20465;-48
2022/03/30 09:24:10;;;;;;;0.90;0.60;;;26.70;74.80;;;;;;4178093;27;20468;-47
2022/03/30 09:26:34;;;;;;;0.50;0.50;;;26.70;74.70;;;;;;4173355;27;20053;-51
2022/03/30 09:28:56;;;;;;;0.73;0.60;;;26.70;74.80;;;;;;4173752;27;20202;-51
2022/03/30 09:31:19;;;;;;;0.70;0.50;;;26.70;74.80;;;;;;4182132;27;20043;-48
2022/03/30 09:33:43;;;;;;;0.95;0.50;;;26.70;74.80;;;;;;4172837;28;20945;-51
2022/03/30 09:36:25;;;;;;;0.73;0.60;;;26.70;74.80;;;;;;4173524;27;20031;-54
2022/03/30 09:38:47;;;;;;;0.73;0.40;;;26.70;74.80;;;;;;4174574;27;20067;-50
2022/03/30 09:41:10;;;;;;;1.10;0.60;;;26.70;74.80;;;;;;4180642;27;20117;-53
2022/03/30 09:43:37;;;;;;;0.47;0.47;;;26.60;74.80;;;;;;4169603;27;20035;-53
2022/03/30 09:46:08;;;;;;;0.90;0.52;;;26.70;74.90;;;;;;4171426;27;20335;-52
2022/03/30 09:48:35;;;;;;;1.30;0.63;;;26.70;74.80;;;;;;4170860;27;20154;-51
2022/03/30 09:50:59;;;;;;;0.57;0.43;;;26.60;74.70;;;;;;4169725;27;20031;-51
2022/03/30 09:53:24;;;;;;;0.80;0.55;;;26.60;74.70;;;;;;4181586;27;20422;-50
2022/03/30 09:55:59;;;;;;;0.50;0.40;;;26.60;74.80;;;;;;4168083;27;20063;-46
2022/03/30 09:58:23;;;;;;;0.52;0.52;;;26.60;74.80;;;;;;4177827;27;20069;-53
2022/03/30 10:00:52;;;;;;;0.50;0.50;;;26.60;74.80;;;;;;4168602;27;20035;-50
2022/03/30 10:03:15;;;;;;;0.75;0.55;;;26.60;74.80;;;;;;4174826;27;20035;-46
2022/03/30 10:05:40;;;;;;;0.98;0.60;;;26.60;74.80;;;;;;4167646;27;20028;-47
2022/03/30 10:08:03;;;;;;;1.25;0.80;;;26.60;74.70;;;;;;4174525;27;20162;-49
2022/03/30 10:10:26;;;;;;;2.57;0.70;;;26.60;74.80;;;;;;4181085;27;20030;-50
2022/03/30 10:12:49;;;;;;;0.90;0.60;;;26.60;74.80;;;;;;4165746;28;20358;-46
2022/03/30 10:15:12;;;;;;;2.45;0.65;;;26.60;75.40;;;;;;4169520;27;20043;-49
2022/03/30 10:17:36;;;;;;;1.45;0.75;;;26.60;74.70;;;;;;4176030;28;20040;-49
2022/03/30 10:20:01;;;;;;;4.85;0.52;;;26.60;74.70;;;;;;4168995;28;20486;-53
2022/03/30 10:22:45;;;;;;;1.02;0.60;;;26.60;74.70;;;;;;4173550;27;20093;-52
2022/03/30 10:25:44;;;;;;;1.08;0.68;;;26.60;74.70;;;;;;4174553;28;20174;-48
2022/03/30 10:28:18;;;;;;;0.57;0.50;;;26.60;74.80;;;;;;4171965;28;20089;-49
2022/03/30 10:30:43;;;;;;;0.50;0.50;;;26.60;74.80;;;;;;4176772;28;20897;-53
2022/03/30 10:33:06;;;;;;;1.63;0.82;;;26.50;74.70;;;;;;4170381;28;20031;-52
2022/03/30 10:35:41;;;;;;;1.20;0.50;;;26.50;74.80;;;;;;4169689;28;20059;-49
2022/03/30 10:38:04;;;;;;;0.73;0.40;;;26.50;74.80;;;;;;4171214;28;20715;-49
2022/03/30 10:40:27;;;;;;;1.42;0.50;;;26.50;74.80;;;;;;4167733;28;20055;-53
2022/03/30 10:42:49;;;;;;;2.33;0.50;;;26.50;74.80;;;;;;4174996;28;20070;-46
2022/03/30 10:45:18;;;;;;;1.05;0.68;;;26.50;75.40;;;;;;4169418;28;20486;-53
2022/03/30 10:48:12;;;;;;;0.60;0.52;;;26.50;74.80;;;;;;4169665;28;20095;-46
2022/03/30 10:50:36;;;;;;;1.23;0.60;;;26.50;74.80;;;;;;4158617;28;20059;-50
2022/03/30 10:52:58;;;;;;;0.90;0.50;;;26.50;74.80;;;;;;4169459;28;20035;-49
2022/03/30 10:55:29;;;;;;;1.00;0.60;;;26.50;74.80;;;;;;4175455;27;20046;-46
2022/03/30 10:57:57;;;;;;;1.85;0.73;;;26.50;74.80;;;;;;4179096;27;20049;-47
2022/03/30 11:00:31;;;;;;;4.47;0.73;;;26.50;74.80;;;;;;4179335;27;20844;-47
2022/03/30 11:03:17;;;;;;;6.72;1.05;;;26.50;74.70;;;;;;4172222;27;20045;-47
2022/03/30 11:05:45;;;;;;;1.90;0.60;;;26.50;74.70;;;;;;4173985;27;20046;-51
2022/03/30 11:08:48;;;;;;;2.45;0.82;;;26.50;74.70;;;;;;4171618;28;20043;-48
2022/03/30 11:11:30;;;;;;;2.45;0.90;;;26.40;74.50;;;;;;4176267;27;20035;-49
2022/03/30 11:14:29;;;;;;;2.70;0.73;;;26.40;74.60;;;;;;4177894;27;20481;-47
2022/03/30 11:16:54;;;;;;;1.25;0.73;;;26.40;74.50;;;;;;4187459;27;20047;-47
2022/03/30 11:19:17;;;;;;;2.72;0.82;;;26.40;74.50;;;;;;4184411;27;20186;-51
2022/03/30 11:21:39;;;;;;;1.00;0.57;;;26.30;74.50;;;;;;4180127;27;20035;-49
2022/03/30 11:24:08;;;;;;;0.83;0.53;;;26.30;74.60;;;;;;4186470;27;21634;-48
2022/03/30 11:26:49;;;;;;;0.75;0.60;;;26.30;74.70;;;;;;4161339;28;20058;-45
2022/03/30 11:29:52;;;;;;;2.88;0.90;;;26.30;74.80;;;;;;4185184;27;20044;-47
2022/03/30 11:32:31;;;;;;;2.10;0.82;;;26.30;74.90;;;;;;4168005;28;20769;-46
2022/03/30 11:34:57;;;;;;;7.95;1.40;;;26.20;74.80;;;;;;4179584;27;20186;-46
2022/03/30 11:37:29;;;;;;;15.88;1.45;;;26.20;74.80;;;;;;4188526;27;20112;-45
2022/03/30 11:39:52;;;;;;;4.93;1.30;;;26.20;75.00;;;;;;4175146;27;20175;-47
2022/03/30 11:42:14;;;;;;;4.85;1.17;;;26.20;75.00;;;;;;4189854;27;20127;-45
2022/03/30 11:47:21;;;;;;;4.07;1.30;;;26.10;75.00;;;;;;4186967;27;20458;-54
2022/03/30 11:49:55;;;;;;;3.30;1.20;;;26.10;75.00;;;;;;4181464;27;20390;-46
2022/03/30 11:52:19;;;;;;;6.35;1.48;;;26.10;75.00;;;;;;4185749;27;20038;-44
2022/03/30 11:54:53;;;;;;;5.30;1.20;;;26.10;75.10;;;;;;4178934;27;21141;-44
2022/03/30 11:57:17;;;;;;;4.53;1.38;;;26.10;75.10;;;;;;4165141;28;20702;-49
2022/03/30 11:59:40;;;;;;;3.45;0.93;;;26.10;75.20;;;;;;4181951;27;20042;-45
2022/03/30 12:02:03;;;;;;;2.88;0.98;;;26.10;75.20;;;;;;4184709;27;20057;-47
2022/03/30 12:04:30;;;;;;;;;;;26.10;75.10;;;;;;4181665;27;20490;-51
2022/03/30 12:06:52;;;;;;;5.18;0.93;;;26.00;75.30;;;;;;4176932;27;19931;-43
2022/03/30 12:09:18;;;;;;;4.55;1.08;;;26.00;75.20;;;;;;4190136;27;20050;-47
2022/03/30 12:11:42;;;;;;;3.22;1.10;;;26.00;75.20;;;;;;4182428;28;20058;-45
2022/03/30 12:14:05;;;;;;;;;;;26.00;75.20;;;;;;4184054;27;20044;-47
2022/03/30 12:16:30;;;;;;;2.03;1.10;;;26.00;75.40;;;;;;4194286;27;19915;-47
2022/03/30 12:18:55;;;;;;;3.80;0.95;;;25.90;75.30;;;;;;4161964;27;20051;-45
2022/03/30 12:21:23;;;;;;;2.05;1.05;;;26.00;75.20;;;;;;4186586;27;20035;-44
2022/03/30 12:23:59;;;;;;;2.92;1.10;;;25.90;75.50;;;;;;4184066;27;20043;-47
2022/03/30 12:26:22;;;;;;;3.03;0.98;;;25.90;75.20;;;;;;4192019;27;20047;-43
2022/03/30 12:28:44;;;;;;;1.98;1.00;;;25.90;75.30;;;;;;4179383;27;20063;-43
2022/03/30 12:31:08;;;;;;;0.93;0.70;;;25.90;75.30;;;;;;4182230;27;20092;-47
2022/03/30 12:33:30;;;;;;;3.28;1.00;;;25.90;75.30;;;;;;4174664;27;20044;-49
2022/03/30 12:35:54;;;;;;;2.28;0.68;;;25.80;75.20;;;;;;4187200;27;20108;-44
2022/03/30 12:38:17;;;;;;;2.00;1.00;;;25.80;75.30;;;;;;4181753;27;20107;-46
2022/03/30 12:40:42;;;;;;;1.10;0.93;;;25.80;75.30;;;;;;4189044;27;20099;-51
2022/03/30 12:43:06;;;;;;;1.52;0.80;;;25.80;75.40;;;;;;4181198;27;20031;-44
2022/03/30 12:45:28;;;;;;;1.85;0.82;;;25.80;75.30;;;;;;4180494;27;20039;-45
2022/03/30 12:47:59;;;;;;;1.98;1.17;;;25.80;75.30;;;;;;4187338;27;20051;-47
2022/03/30 12:50:29;;;;;;;1.55;0.80;;;25.70;75.50;;;;;;4178190;27;20031;-49
2022/03/30 12:52:54;;;;;;;2.70;0.93;;;25.70;75.40;;;;;;4180556;27;20035;-45
2022/03/30 12:55:24;;;;;;;2.10;0.90;;;25.70;75.60;;;;;;4181807;27;20110;-46
2022/03/30 12:57:59;;;;;;;1.90;1.20;;;25.70;75.50;;;;;;4187339;27;20114;-48
2022/03/30 13:00:37;;;;;;;2.88;1.00;;;25.70;75.60;;;;;;4179246;27;20353;-46